sensor_id;sensor_type;location;lat;lon;timestamp;P1;durP1;ratioP1;P2;durP2;ratioP2
12707;SDS011;6418;50.824;4.718;2022-10-31T00:01:46;31.20;;;16.90;;
12707;SDS011;6418;50.824;4.718;2022-10-31T00:04:13;29.30;;;16.40;;
12707;SDS011;6418;50.824;4.718;2022-10-31T00:06:41;26.47;;;15.57;;
12707;SDS011;6418;50.824;4.718;2022-10-31T00:09:09;30.43;;;15.93;;
12707;SDS011;6418;50.824;4.718;2022-10-31T00:11:36;28.27;;;15.33;;
12707;SDS011;6418;50.824;4.718;2022-10-31T00:14:03;33.93;;;16.77;;
12707;SDS011;6418;50.824;4.718;2022-10-31T00:16:30;26.10;;;15.87;;
12707;SDS011;6418;50.824;4.718;2022-10-31T00:18:58;28.70;;;15.97;;
12707;SDS011;6418;50.824;4.718;2022-10-31T00:21:26;25.83;;;14.83;;
12707;SDS011;6418;50.824;4.718;2022-10-31T00:23:56;29.40;;;16.03;;
12707;SDS011;6418;50.824;4.718;2022-10-31T00:26:23;29.03;;;15.43;;
12707;SDS011;6418;50.824;4.718;2022-10-31T00:28:50;28.73;;;15.13;;
12707;SDS011;6418;50.824;4.718;2022-10-31T00:31:17;28.53;;;14.67;;
12707;SDS011;6418;50.824;4.718;2022-10-31T00:33:44;30.27;;;14.87;;
12707;SDS011;6418;50.824;4.718;2022-10-31T00:36:11;27.20;;;15.30;;
12707;SDS011;6418;50.824;4.718;2022-10-31T00:38:39;26.30;;;14.10;;
12707;SDS011;6418;50.824;4.718;2022-10-31T00:41:08;27.57;;;14.37;;
12707;SDS011;6418;50.824;4.718;2022-10-31T00:43:35;26.37;;;14.23;;
12707;SDS011;6418;50.824;4.718;2022-10-31T00:46:02;24.70;;;14.23;;
12707;SDS011;6418;50.824;4.718;2022-10-31T00:48:29;25.70;;;13.57;;
12707;SDS011;6418;50.824;4.718;2022-10-31T00:50:56;29.93;;;14.57;;
12707;SDS011;6418;50.824;4.718;2022-10-31T00:53:23;24.00;;;13.10;;
12707;SDS011;6418;50.824;4.718;2022-10-31T00:55:50;23.93;;;13.13;;
12707;SDS011;6418;50.824;4.718;2022-10-31T00:58:18;27.47;;;14.27;;
12707;SDS011;6418;50.824;4.718;2022-10-31T01:00:46;26.43;;;14.10;;
12707;SDS011;6418;50.824;4.718;2022-10-31T01:03:19;27.60;;;13.07;;
12707;SDS011;6418;50.824;4.718;2022-10-31T01:05:54;24.50;;;13.00;;
12707;SDS011;6418;50.824;4.718;2022-10-31T01:08:25;23.07;;;13.27;;
12707;SDS011;6418;50.824;4.718;2022-10-31T01:11:04;26.30;;;14.20;;
12707;SDS011;6418;50.824;4.718;2022-10-31T01:13:34;26.43;;;14.07;;
12707;SDS011;6418;50.824;4.718;2022-10-31T01:16:02;24.13;;;13.23;;
12707;SDS011;6418;50.824;4.718;2022-10-31T01:18:31;25.07;;;13.07;;
12707;SDS011;6418;50.824;4.718;2022-10-31T01:20:59;26.90;;;13.77;;
12707;SDS011;6418;50.824;4.718;2022-10-31T01:23:27;25.23;;;13.30;;
12707;SDS011;6418;50.824;4.718;2022-10-31T01:26:01;23.53;;;13.70;;
12707;SDS011;6418;50.824;4.718;2022-10-31T01:28:31;25.03;;;13.30;;
12707;SDS011;6418;50.824;4.718;2022-10-31T01:31:01;22.47;;;12.57;;
12707;SDS011;6418;50.824;4.718;2022-10-31T01:33:29;24.97;;;12.37;;
12707;SDS011;6418;50.824;4.718;2022-10-31T01:35:56;23.03;;;13.33;;
12707;SDS011;6418;50.824;4.718;2022-10-31T01:38:23;27.53;;;13.50;;
12707;SDS011;6418;50.824;4.718;2022-10-31T01:40:50;23.77;;;12.33;;
12707;SDS011;6418;50.824;4.718;2022-10-31T01:43:17;24.13;;;13.00;;
12707;SDS011;6418;50.824;4.718;2022-10-31T01:45:46;23.27;;;13.23;;
12707;SDS011;6418;50.824;4.718;2022-10-31T01:48:20;26.67;;;14.40;;
12707;SDS011;6418;50.824;4.718;2022-10-31T01:50:53;25.70;;;13.80;;
12707;SDS011;6418;50.824;4.718;2022-10-31T01:53:21;24.93;;;13.93;;
12707;SDS011;6418;50.824;4.718;2022-10-31T01:55:49;25.67;;;14.03;;
12707;SDS011;6418;50.824;4.718;2022-10-31T01:58:18;25.93;;;13.57;;
12707;SDS011;6418;50.824;4.718;2022-10-31T02:00:49;25.00;;;14.00;;
12707;SDS011;6418;50.824;4.718;2022-10-31T02:03:21;26.57;;;13.47;;
12707;SDS011;6418;50.824;4.718;2022-10-31T02:05:50;23.90;;;13.33;;
12707;SDS011;6418;50.824;4.718;2022-10-31T02:08:20;22.83;;;13.60;;
12707;SDS011;6418;50.824;4.718;2022-10-31T02:10:51;21.63;;;12.47;;
12707;SDS011;6418;50.824;4.718;2022-10-31T02:13:19;21.77;;;12.17;;
12707;SDS011;6418;50.824;4.718;2022-10-31T02:15:47;23.53;;;11.63;;
12707;SDS011;6418;50.824;4.718;2022-10-31T02:18:18;18.70;;;11.83;;
12707;SDS011;6418;50.824;4.718;2022-10-31T02:20:50;24.30;;;12.60;;
12707;SDS011;6418;50.824;4.718;2022-10-31T02:29:37;22.50;;;12.73;;
12707;SDS011;6418;50.824;4.718;2022-10-31T02:32:27;20.43;;;12.10;;
12707;SDS011;6418;50.824;4.718;2022-10-31T02:35:02;24.23;;;12.33;;
12707;SDS011;6418;50.824;4.718;2022-10-31T02:37:37;21.73;;;12.00;;
12707;SDS011;6418;50.824;4.718;2022-10-31T02:40:10;24.77;;;12.53;;
12707;SDS011;6418;50.824;4.718;2022-10-31T02:42:43;22.00;;;11.03;;
12707;SDS011;6418;50.824;4.718;2022-10-31T02:45:20;22.70;;;11.03;;
12707;SDS011;6418;50.824;4.718;2022-10-31T02:47:54;22.43;;;12.47;;
12707;SDS011;6418;50.824;4.718;2022-10-31T02:50:25;25.20;;;13.00;;
12707;SDS011;6418;50.824;4.718;2022-10-31T02:52:54;21.50;;;11.97;;
12707;SDS011;6418;50.824;4.718;2022-10-31T02:58:17;21.13;;;12.00;;
12707;SDS011;6418;50.824;4.718;2022-10-31T03:00:51;22.53;;;12.27;;
12707;SDS011;6418;50.824;4.718;2022-10-31T03:03:30;22.80;;;12.40;;
12707;SDS011;6418;50.824;4.718;2022-10-31T03:06:07;21.33;;;11.73;;
12707;SDS011;6418;50.824;4.718;2022-10-31T03:08:41;25.70;;;12.40;;
12707;SDS011;6418;50.824;4.718;2022-10-31T03:11:16;24.70;;;13.10;;
12707;SDS011;6418;50.824;4.718;2022-10-31T03:13:49;26.10;;;12.60;;
12707;SDS011;6418;50.824;4.718;2022-10-31T03:16:23;23.30;;;12.77;;
12707;SDS011;6418;50.824;4.718;2022-10-31T03:19:05;24.23;;;12.87;;
12707;SDS011;6418;50.824;4.718;2022-10-31T03:21:35;21.20;;;12.27;;
12707;SDS011;6418;50.824;4.718;2022-10-31T03:24:06;24.27;;;12.40;;
12707;SDS011;6418;50.824;4.718;2022-10-31T03:26:36;27.20;;;13.33;;
12707;SDS011;6418;50.824;4.718;2022-10-31T03:29:08;21.70;;;11.87;;
12707;SDS011;6418;50.824;4.718;2022-10-31T03:31:38;26.03;;;13.03;;
12707;SDS011;6418;50.824;4.718;2022-10-31T03:34:11;22.87;;;12.27;;
12707;SDS011;6418;50.824;4.718;2022-10-31T03:36:38;24.23;;;12.27;;
12707;SDS011;6418;50.824;4.718;2022-10-31T03:39:08;26.20;;;12.57;;
12707;SDS011;6418;50.824;4.718;2022-10-31T03:41:40;25.90;;;12.70;;
12707;SDS011;6418;50.824;4.718;2022-10-31T03:44:11;22.23;;;12.00;;
12707;SDS011;6418;50.824;4.718;2022-10-31T03:46:40;22.23;;;12.33;;
12707;SDS011;6418;50.824;4.718;2022-10-31T03:49:09;26.63;;;13.17;;
12707;SDS011;6418;50.824;4.718;2022-10-31T03:51:38;26.23;;;13.90;;
12707;SDS011;6418;50.824;4.718;2022-10-31T03:54:11;23.20;;;13.03;;
12707;SDS011;6418;50.824;4.718;2022-10-31T03:56:43;22.93;;;12.73;;
12707;SDS011;6418;50.824;4.718;2022-10-31T03:59:16;27.30;;;13.63;;
12707;SDS011;6418;50.824;4.718;2022-10-31T04:01:49;26.57;;;13.47;;
12707;SDS011;6418;50.824;4.718;2022-10-31T04:04:20;29.53;;;14.13;;
12707;SDS011;6418;50.824;4.718;2022-10-31T04:06:47;26.73;;;14.40;;
12707;SDS011;6418;50.824;4.718;2022-10-31T04:09:16;26.77;;;13.17;;
12707;SDS011;6418;50.824;4.718;2022-10-31T04:11:46;21.90;;;12.57;;
12707;SDS011;6418;50.824;4.718;2022-10-31T04:14:17;26.27;;;13.03;;
12707;SDS011;6418;50.824;4.718;2022-10-31T04:16:44;25.83;;;12.97;;
12707;SDS011;6418;50.824;4.718;2022-10-31T04:19:12;22.63;;;13.30;;
12707;SDS011;6418;50.824;4.718;2022-10-31T04:21:41;25.17;;;13.37;;
12707;SDS011;6418;50.824;4.718;2022-10-31T04:24:09;24.87;;;13.00;;
12707;SDS011;6418;50.824;4.718;2022-10-31T04:26:36;30.73;;;13.73;;
12707;SDS011;6418;50.824;4.718;2022-10-31T04:29:03;27.63;;;14.43;;
12707;SDS011;6418;50.824;4.718;2022-10-31T04:31:30;24.47;;;13.57;;
12707;SDS011;6418;50.824;4.718;2022-10-31T04:33:57;27.17;;;13.63;;
12707;SDS011;6418;50.824;4.718;2022-10-31T04:36:24;23.93;;;12.40;;
12707;SDS011;6418;50.824;4.718;2022-10-31T04:38:52;23.50;;;12.57;;
12707;SDS011;6418;50.824;4.718;2022-10-31T04:41:19;23.80;;;12.70;;
12707;SDS011;6418;50.824;4.718;2022-10-31T04:43:46;26.67;;;14.00;;
12707;SDS011;6418;50.824;4.718;2022-10-31T04:46:13;23.13;;;12.90;;
12707;SDS011;6418;50.824;4.718;2022-10-31T04:48:40;27.60;;;13.83;;
12707;SDS011;6418;50.824;4.718;2022-10-31T04:51:07;24.20;;;13.13;;
12707;SDS011;6418;50.824;4.718;2022-10-31T04:53:34;27.40;;;13.53;;
12707;SDS011;6418;50.824;4.718;2022-10-31T04:56:02;24.20;;;13.20;;
12707;SDS011;6418;50.824;4.718;2022-10-31T04:58:29;26.93;;;14.03;;
12707;SDS011;6418;50.824;4.718;2022-10-31T05:00:56;26.53;;;14.10;;
12707;SDS011;6418;50.824;4.718;2022-10-31T05:03:23;26.33;;;13.77;;
12707;SDS011;6418;50.824;4.718;2022-10-31T05:05:50;28.03;;;14.93;;
12707;SDS011;6418;50.824;4.718;2022-10-31T05:08:17;27.53;;;13.97;;
12707;SDS011;6418;50.824;4.718;2022-10-31T05:10:44;25.20;;;14.20;;
12707;SDS011;6418;50.824;4.718;2022-10-31T05:13:12;27.00;;;15.67;;
12707;SDS011;6418;50.824;4.718;2022-10-31T05:15:40;29.70;;;13.77;;
12707;SDS011;6418;50.824;4.718;2022-10-31T05:18:07;26.87;;;14.00;;
12707;SDS011;6418;50.824;4.718;2022-10-31T05:20:34;25.03;;;14.87;;
12707;SDS011;6418;50.824;4.718;2022-10-31T05:23:01;28.10;;;15.67;;
12707;SDS011;6418;50.824;4.718;2022-10-31T05:25:28;29.87;;;15.00;;
12707;SDS011;6418;50.824;4.718;2022-10-31T05:27:55;29.00;;;16.53;;
12707;SDS011;6418;50.824;4.718;2022-10-31T05:30:25;26.10;;;15.03;;
12707;SDS011;6418;50.824;4.718;2022-10-31T05:32:54;26.73;;;15.23;;
12707;SDS011;6418;50.824;4.718;2022-10-31T05:35:22;26.13;;;14.90;;
12707;SDS011;6418;50.824;4.718;2022-10-31T05:37:51;28.43;;;15.20;;
12707;SDS011;6418;50.824;4.718;2022-10-31T05:40:18;29.20;;;15.20;;
12707;SDS011;6418;50.824;4.718;2022-10-31T05:42:46;29.10;;;15.93;;
12707;SDS011;6418;50.824;4.718;2022-10-31T05:45:14;26.10;;;15.03;;
12707;SDS011;6418;50.824;4.718;2022-10-31T05:47:49;26.47;;;15.23;;
12707;SDS011;6418;50.824;4.718;2022-10-31T05:50:16;29.20;;;15.77;;
12707;SDS011;6418;50.824;4.718;2022-10-31T05:52:43;32.20;;;16.53;;
12707;SDS011;6418;50.824;4.718;2022-10-31T05:55:10;26.10;;;15.53;;
12707;SDS011;6418;50.824;4.718;2022-10-31T05:57:37;28.13;;;16.60;;
12707;SDS011;6418;50.824;4.718;2022-10-31T06:00:05;32.10;;;15.93;;
12707;SDS011;6418;50.824;4.718;2022-10-31T06:02:32;28.83;;;15.87;;
12707;SDS011;6418;50.824;4.718;2022-10-31T06:05:01;27.70;;;15.63;;
12707;SDS011;6418;50.824;4.718;2022-10-31T06:07:31;28.03;;;14.63;;
12707;SDS011;6418;50.824;4.718;2022-10-31T06:09:59;27.77;;;15.47;;
12707;SDS011;6418;50.824;4.718;2022-10-31T06:12:26;26.57;;;13.80;;
12707;SDS011;6418;50.824;4.718;2022-10-31T06:14:53;28.90;;;14.97;;
12707;SDS011;6418;50.824;4.718;2022-10-31T06:17:20;27.60;;;15.60;;
12707;SDS011;6418;50.824;4.718;2022-10-31T06:19:47;24.97;;;14.77;;
12707;SDS011;6418;50.824;4.718;2022-10-31T06:22:15;27.27;;;14.33;;
12707;SDS011;6418;50.824;4.718;2022-10-31T06:24:42;24.70;;;14.63;;
12707;SDS011;6418;50.824;4.718;2022-10-31T06:27:09;23.00;;;13.77;;
12707;SDS011;6418;50.824;4.718;2022-10-31T06:29:36;28.50;;;14.50;;
12707;SDS011;6418;50.824;4.718;2022-10-31T06:32:02;25.87;;;14.97;;
12707;SDS011;6418;50.824;4.718;2022-10-31T06:34:29;27.50;;;14.80;;
12707;SDS011;6418;50.824;4.718;2022-10-31T06:36:56;25.50;;;13.73;;
12707;SDS011;6418;50.824;4.718;2022-10-31T06:39:25;25.50;;;14.10;;
12707;SDS011;6418;50.824;4.718;2022-10-31T06:41:51;27.90;;;14.73;;
12707;SDS011;6418;50.824;4.718;2022-10-31T06:44:18;27.67;;;14.60;;
12707;SDS011;6418;50.824;4.718;2022-10-31T06:46:45;26.17;;;13.57;;
12707;SDS011;6418;50.824;4.718;2022-10-31T06:49:13;24.07;;;14.40;;
12707;SDS011;6418;50.824;4.718;2022-10-31T06:51:40;28.13;;;14.43;;
12707;SDS011;6418;50.824;4.718;2022-10-31T06:54:07;30.40;;;15.27;;
12707;SDS011;6418;50.824;4.718;2022-10-31T06:56:36;27.53;;;14.90;;
12707;SDS011;6418;50.824;4.718;2022-10-31T06:59:03;24.00;;;14.23;;
12707;SDS011;6418;50.824;4.718;2022-10-31T07:01:30;30.87;;;14.93;;
12707;SDS011;6418;50.824;4.718;2022-10-31T07:03:57;27.77;;;15.67;;
12707;SDS011;6418;50.824;4.718;2022-10-31T07:06:23;25.80;;;15.17;;
12707;SDS011;6418;50.824;4.718;2022-10-31T07:08:50;24.70;;;14.43;;
12707;SDS011;6418;50.824;4.718;2022-10-31T07:11:17;26.73;;;14.63;;
12707;SDS011;6418;50.824;4.718;2022-10-31T07:13:46;27.57;;;15.20;;
12707;SDS011;6418;50.824;4.718;2022-10-31T07:16:12;29.03;;;15.43;;
12707;SDS011;6418;50.824;4.718;2022-10-31T07:18:39;28.83;;;15.87;;
12707;SDS011;6418;50.824;4.718;2022-10-31T07:21:06;27.80;;;15.33;;
12707;SDS011;6418;50.824;4.718;2022-10-31T07:23:33;29.23;;;14.87;;
12707;SDS011;6418;50.824;4.718;2022-10-31T07:26:00;29.73;;;15.77;;
12707;SDS011;6418;50.824;4.718;2022-10-31T07:28:27;35.53;;;16.10;;
12707;SDS011;6418;50.824;4.718;2022-10-31T07:30:56;31.83;;;17.03;;
12707;SDS011;6418;50.824;4.718;2022-10-31T07:33:24;30.43;;;15.60;;
12707;SDS011;6418;50.824;4.718;2022-10-31T07:35:52;29.93;;;16.00;;
12707;SDS011;6418;50.824;4.718;2022-10-31T07:38:19;32.70;;;16.60;;
12707;SDS011;6418;50.824;4.718;2022-10-31T07:40:49;27.80;;;15.23;;
12707;SDS011;6418;50.824;4.718;2022-10-31T07:43:17;31.23;;;16.00;;
12707;SDS011;6418;50.824;4.718;2022-10-31T07:45:48;28.20;;;15.30;;
12707;SDS011;6418;50.824;4.718;2022-10-31T07:48:17;29.13;;;14.70;;
12707;SDS011;6418;50.824;4.718;2022-10-31T07:50:45;31.83;;;15.10;;
12707;SDS011;6418;50.824;4.718;2022-10-31T07:53:12;26.83;;;15.33;;
12707;SDS011;6418;50.824;4.718;2022-10-31T07:55:40;29.40;;;14.40;;
12707;SDS011;6418;50.824;4.718;2022-10-31T07:58:08;29.03;;;15.07;;
12707;SDS011;6418;50.824;4.718;2022-10-31T08:00:39;27.50;;;15.23;;
12707;SDS011;6418;50.824;4.718;2022-10-31T08:03:08;30.10;;;15.80;;
12707;SDS011;6418;50.824;4.718;2022-10-31T08:05:37;26.73;;;15.17;;
12707;SDS011;6418;50.824;4.718;2022-10-31T08:08:05;29.40;;;15.10;;
12707;SDS011;6418;50.824;4.718;2022-10-31T08:10:33;27.60;;;15.00;;
12707;SDS011;6418;50.824;4.718;2022-10-31T08:13:01;29.57;;;15.13;;
12707;SDS011;6418;50.824;4.718;2022-10-31T08:15:30;26.80;;;15.30;;
12707;SDS011;6418;50.824;4.718;2022-10-31T08:17:57;27.63;;;15.43;;
12707;SDS011;6418;50.824;4.718;2022-10-31T08:20:24;27.07;;;15.50;;
12707;SDS011;6418;50.824;4.718;2022-10-31T08:23:00;26.93;;;15.17;;
12707;SDS011;6418;50.824;4.718;2022-10-31T08:25:28;25.93;;;15.73;;
12707;SDS011;6418;50.824;4.718;2022-10-31T08:27:56;27.33;;;16.80;;
12707;SDS011;6418;50.824;4.718;2022-10-31T08:30:24;30.80;;;16.47;;
12707;SDS011;6418;50.824;4.718;2022-10-31T08:32:59;33.03;;;17.33;;
12707;SDS011;6418;50.824;4.718;2022-10-31T08:35:27;29.03;;;17.73;;
12707;SDS011;6418;50.824;4.718;2022-10-31T08:37:54;31.27;;;16.33;;
12707;SDS011;6418;50.824;4.718;2022-10-31T08:40:23;25.53;;;16.30;;
12707;SDS011;6418;50.824;4.718;2022-10-31T08:42:55;28.00;;;15.87;;
12707;SDS011;6418;50.824;4.718;2022-10-31T08:45:23;30.53;;;17.07;;
12707;SDS011;6418;50.824;4.718;2022-10-31T08:47:50;30.40;;;16.47;;
12707;SDS011;6418;50.824;4.718;2022-10-31T08:50:18;27.30;;;16.67;;
12707;SDS011;6418;50.824;4.718;2022-10-31T08:52:45;30.67;;;17.17;;
12707;SDS011;6418;50.824;4.718;2022-10-31T08:55:11;29.97;;;16.93;;
12707;SDS011;6418;50.824;4.718;2022-10-31T08:57:40;29.17;;;17.00;;
12707;SDS011;6418;50.824;4.718;2022-10-31T09:00:07;27.53;;;16.27;;
12707;SDS011;6418;50.824;4.718;2022-10-31T09:02:35;27.50;;;16.70;;
12707;SDS011;6418;50.824;4.718;2022-10-31T09:05:03;29.20;;;17.40;;
12707;SDS011;6418;50.824;4.718;2022-10-31T09:07:30;32.23;;;16.20;;
12707;SDS011;6418;50.824;4.718;2022-10-31T09:09:57;31.43;;;16.83;;
12707;SDS011;6418;50.824;4.718;2022-10-31T09:12:24;30.93;;;15.97;;
12707;SDS011;6418;50.824;4.718;2022-10-31T09:14:53;29.50;;;15.90;;
12707;SDS011;6418;50.824;4.718;2022-10-31T09:17:19;29.07;;;16.93;;
12707;SDS011;6418;50.824;4.718;2022-10-31T09:19:46;28.33;;;14.93;;
12707;SDS011;6418;50.824;4.718;2022-10-31T09:22:13;29.77;;;15.77;;
12707;SDS011;6418;50.824;4.718;2022-10-31T09:24:40;32.40;;;16.40;;
12707;SDS011;6418;50.824;4.718;2022-10-31T09:27:07;28.80;;;15.77;;
12707;SDS011;6418;50.824;4.718;2022-10-31T09:29:34;26.07;;;15.23;;
12707;SDS011;6418;50.824;4.718;2022-10-31T09:32:03;25.37;;;14.90;;
12707;SDS011;6418;50.824;4.718;2022-10-31T09:34:30;25.03;;;14.70;;
12707;SDS011;6418;50.824;4.718;2022-10-31T09:36:56;23.97;;;14.03;;
12707;SDS011;6418;50.824;4.718;2022-10-31T09:39:23;24.33;;;14.17;;
12707;SDS011;6418;50.824;4.718;2022-10-31T09:44:56;25.23;;;13.37;;
12707;SDS011;6418;50.824;4.718;2022-10-31T09:47:35;25.83;;;13.27;;
12707;SDS011;6418;50.824;4.718;2022-10-31T09:50:13;25.60;;;13.50;;
12707;SDS011;6418;50.824;4.718;2022-10-31T09:52:45;25.33;;;13.50;;
12707;SDS011;6418;50.824;4.718;2022-10-31T09:55:19;23.93;;;12.70;;
12707;SDS011;6418;50.824;4.718;2022-10-31T09:57:53;24.17;;;13.17;;
12707;SDS011;6418;50.824;4.718;2022-10-31T10:00:21;27.50;;;14.13;;
12707;SDS011;6418;50.824;4.718;2022-10-31T10:02:52;26.93;;;13.80;;
12707;SDS011;6418;50.824;4.718;2022-10-31T10:05:24;24.43;;;12.63;;
12707;SDS011;6418;50.824;4.718;2022-10-31T10:07:55;23.80;;;12.73;;
12707;SDS011;6418;50.824;4.718;2022-10-31T10:10:31;20.83;;;12.50;;
12707;SDS011;6418;50.824;4.718;2022-10-31T10:16:03;21.40;;;11.93;;
12707;SDS011;6418;50.824;4.718;2022-10-31T10:18:43;21.93;;;12.17;;
12707;SDS011;6418;50.824;4.718;2022-10-31T10:21:24;21.70;;;12.03;;
12707;SDS011;6418;50.824;4.718;2022-10-31T10:24:03;26.00;;;12.83;;
12707;SDS011;6418;50.824;4.718;2022-10-31T10:26:41;22.67;;;12.70;;
12707;SDS011;6418;50.824;4.718;2022-10-31T10:29:20;19.27;;;11.93;;
12707;SDS011;6418;50.824;4.718;2022-10-31T10:31:56;21.83;;;11.60;;
12707;SDS011;6418;50.824;4.718;2022-10-31T10:34:29;22.63;;;12.10;;
12707;SDS011;6418;50.824;4.718;2022-10-31T10:37:01;22.30;;;12.07;;
12707;SDS011;6418;50.824;4.718;2022-10-31T10:39:31;26.13;;;12.43;;
12707;SDS011;6418;50.824;4.718;2022-10-31T10:42:04;20.53;;;12.03;;
12707;SDS011;6418;50.824;4.718;2022-10-31T10:44:55;27.37;;;13.27;;
12707;SDS011;6418;50.824;4.718;2022-10-31T10:47:40;23.90;;;13.30;;
12707;SDS011;6418;50.824;4.718;2022-10-31T10:50:12;22.23;;;12.80;;
12707;SDS011;6418;50.824;4.718;2022-10-31T10:52:45;23.47;;;13.43;;
12707;SDS011;6418;50.824;4.718;2022-10-31T10:55:21;22.97;;;13.40;;
12707;SDS011;6418;50.824;4.718;2022-10-31T10:57:56;28.07;;;14.27;;
12707;SDS011;6418;50.824;4.718;2022-10-31T11:00:28;24.57;;;13.77;;
12707;SDS011;6418;50.824;4.718;2022-10-31T11:02:58;23.33;;;12.70;;
12707;SDS011;6418;50.824;4.718;2022-10-31T11:05:28;22.53;;;12.83;;
12707;SDS011;6418;50.824;4.718;2022-10-31T11:08:00;23.07;;;12.90;;
12707;SDS011;6418;50.824;4.718;2022-10-31T11:10:27;23.73;;;12.57;;
12707;SDS011;6418;50.824;4.718;2022-10-31T11:12:59;22.50;;;13.20;;
12707;SDS011;6418;50.824;4.718;2022-10-31T11:15:30;24.13;;;13.00;;
12707;SDS011;6418;50.824;4.718;2022-10-31T11:17:59;23.10;;;12.37;;
12707;SDS011;6418;50.824;4.718;2022-10-31T11:20:30;21.80;;;12.37;;
12707;SDS011;6418;50.824;4.718;2022-10-31T11:23:03;29.23;;;13.13;;
12707;SDS011;6418;50.824;4.718;2022-10-31T11:25:47;24.77;;;13.63;;
12707;SDS011;6418;50.824;4.718;2022-10-31T11:28:16;21.80;;;12.30;;
12707;SDS011;6418;50.824;4.718;2022-10-31T11:30:44;28.27;;;13.97;;
12707;SDS011;6418;50.824;4.718;2022-10-31T11:33:21;26.10;;;13.03;;
12707;SDS011;6418;50.824;4.718;2022-10-31T11:35:55;22.03;;;12.07;;
12707;SDS011;6418;50.824;4.718;2022-10-31T11:38:24;22.33;;;12.60;;
12707;SDS011;6418;50.824;4.718;2022-10-31T11:40:57;24.47;;;12.40;;
12707;SDS011;6418;50.824;4.718;2022-10-31T11:43:26;24.73;;;12.80;;
12707;SDS011;6418;50.824;4.718;2022-10-31T11:45:53;27.03;;;12.63;;
12707;SDS011;6418;50.824;4.718;2022-10-31T11:48:21;24.23;;;12.27;;
12707;SDS011;6418;50.824;4.718;2022-10-31T11:50:50;24.03;;;12.13;;
12707;SDS011;6418;50.824;4.718;2022-10-31T11:53:22;22.07;;;11.77;;
12707;SDS011;6418;50.824;4.718;2022-10-31T11:56:00;22.60;;;12.87;;
12707;SDS011;6418;50.824;4.718;2022-10-31T11:58:30;25.27;;;12.03;;
12707;SDS011;6418;50.824;4.718;2022-10-31T12:00:57;23.27;;;12.00;;
12707;SDS011;6418;50.824;4.718;2022-10-31T12:03:37;26.23;;;12.07;;
12707;SDS011;6418;50.824;4.718;2022-10-31T12:06:16;23.57;;;11.03;;
12707;SDS011;6418;50.824;4.718;2022-10-31T12:08:49;19.80;;;11.23;;
12707;SDS011;6418;50.824;4.718;2022-10-31T12:11:39;22.17;;;11.53;;
12707;SDS011;6418;50.824;4.718;2022-10-31T12:14:14;21.37;;;10.70;;
12707;SDS011;6418;50.824;4.718;2022-10-31T12:16:53;19.50;;;11.13;;
12707;SDS011;6418;50.824;4.718;2022-10-31T12:19:27;22.47;;;9.97;;
12707;SDS011;6418;50.824;4.718;2022-10-31T12:22:04;21.63;;;10.13;;
12707;SDS011;6418;50.824;4.718;2022-10-31T12:24:44;18.10;;;9.70;;
12707;SDS011;6418;50.824;4.718;2022-10-31T12:27:22;19.87;;;9.53;;
12707;SDS011;6418;50.824;4.718;2022-10-31T12:30:04;19.37;;;8.77;;
12707;SDS011;6418;50.824;4.718;2022-10-31T12:32:46;20.97;;;8.67;;
12707;SDS011;6418;50.824;4.718;2022-10-31T12:35:30;18.27;;;8.83;;
12707;SDS011;6418;50.824;4.718;2022-10-31T12:38:09;20.60;;;8.73;;
12707;SDS011;6418;50.824;4.718;2022-10-31T12:41:02;19.73;;;9.03;;
12707;SDS011;6418;50.824;4.718;2022-10-31T12:43:43;16.27;;;7.87;;
12707;SDS011;6418;50.824;4.718;2022-10-31T12:46:15;18.47;;;8.40;;
12707;SDS011;6418;50.824;4.718;2022-10-31T12:48:54;18.17;;;8.27;;
12707;SDS011;6418;50.824;4.718;2022-10-31T12:51:34;15.57;;;7.57;;
12707;SDS011;6418;50.824;4.718;2022-10-31T12:54:16;18.00;;;7.50;;
12707;SDS011;6418;50.824;4.718;2022-10-31T12:56:57;15.60;;;7.33;;
12707;SDS011;6418;50.824;4.718;2022-10-31T12:59:31;18.73;;;7.40;;
12707;SDS011;6418;50.824;4.718;2022-10-31T13:02:03;16.43;;;7.77;;
12707;SDS011;6418;50.824;4.718;2022-10-31T13:04:40;18.43;;;7.50;;
12707;SDS011;6418;50.824;4.718;2022-10-31T13:07:12;16.43;;;7.33;;
12707;SDS011;6418;50.824;4.718;2022-10-31T13:09:46;19.37;;;7.37;;
12707;SDS011;6418;50.824;4.718;2022-10-31T13:12:19;15.57;;;6.97;;
12707;SDS011;6418;50.824;4.718;2022-10-31T13:14:49;17.83;;;7.07;;
12707;SDS011;6418;50.824;4.718;2022-10-31T13:17:21;18.80;;;7.07;;
12707;SDS011;6418;50.824;4.718;2022-10-31T13:19:55;19.67;;;7.90;;
12707;SDS011;6418;50.824;4.718;2022-10-31T13:22:31;14.90;;;7.23;;
12707;SDS011;6418;50.824;4.718;2022-10-31T13:25:02;19.53;;;8.30;;
12707;SDS011;6418;50.824;4.718;2022-10-31T13:27:39;20.10;;;8.23;;
12707;SDS011;6418;50.824;4.718;2022-10-31T13:30:12;20.80;;;8.90;;
12707;SDS011;6418;50.824;4.718;2022-10-31T13:32:41;21.97;;;9.10;;
12707;SDS011;6418;50.824;4.718;2022-10-31T13:35:13;18.97;;;8.03;;
12707;SDS011;6418;50.824;4.718;2022-10-31T13:37:46;23.90;;;10.13;;
12707;SDS011;6418;50.824;4.718;2022-10-31T13:40:20;20.73;;;9.87;;
12707;SDS011;6418;50.824;4.718;2022-10-31T13:43:02;21.93;;;10.67;;
12707;SDS011;6418;50.824;4.718;2022-10-31T13:45:46;20.63;;;9.77;;
12707;SDS011;6418;50.824;4.718;2022-10-31T13:48:19;20.77;;;10.63;;
12707;SDS011;6418;50.824;4.718;2022-10-31T13:51:08;19.07;;;10.07;;
12707;SDS011;6418;50.824;4.718;2022-10-31T13:53:37;23.00;;;11.00;;
12707;SDS011;6418;50.824;4.718;2022-10-31T13:56:17;22.97;;;10.87;;
12707;SDS011;6418;50.824;4.718;2022-10-31T13:59:02;27.20;;;11.30;;
12707;SDS011;6418;50.824;4.718;2022-10-31T14:01:45;23.40;;;11.40;;
12707;SDS011;6418;50.824;4.718;2022-10-31T14:04:15;27.33;;;11.20;;
12707;SDS011;6418;50.824;4.718;2022-10-31T14:06:46;22.03;;;11.33;;
12707;SDS011;6418;50.824;4.718;2022-10-31T14:09:23;22.47;;;11.37;;
12707;SDS011;6418;50.824;4.718;2022-10-31T14:11:57;23.33;;;11.23;;
12707;SDS011;6418;50.824;4.718;2022-10-31T14:14:31;22.90;;;12.13;;
12707;SDS011;6418;50.824;4.718;2022-10-31T14:17:12;22.00;;;11.27;;
12707;SDS011;6418;50.824;4.718;2022-10-31T14:19:56;22.90;;;12.43;;
12707;SDS011;6418;50.824;4.718;2022-10-31T14:22:28;20.77;;;11.20;;
12707;SDS011;6418;50.824;4.718;2022-10-31T14:24:57;22.53;;;11.70;;
12707;SDS011;6418;50.824;4.718;2022-10-31T14:27:32;24.97;;;11.77;;
12707;SDS011;6418;50.824;4.718;2022-10-31T14:30:12;23.63;;;12.73;;
12707;SDS011;6418;50.824;4.718;2022-10-31T14:32:49;26.30;;;12.83;;
12707;SDS011;6418;50.824;4.718;2022-10-31T14:35:18;26.50;;;12.43;;
12707;SDS011;6418;50.824;4.718;2022-10-31T14:37:53;23.57;;;12.63;;
12707;SDS011;6418;50.824;4.718;2022-10-31T14:40:46;22.57;;;12.10;;
12707;SDS011;6418;50.824;4.718;2022-10-31T14:46:22;24.77;;;12.20;;
12707;SDS011;6418;50.824;4.718;2022-10-31T14:49:02;23.20;;;12.23;;
12707;SDS011;6418;50.824;4.718;2022-10-31T14:51:46;21.20;;;11.90;;
12707;SDS011;6418;50.824;4.718;2022-10-31T14:54:15;24.10;;;12.50;;
12707;SDS011;6418;50.824;4.718;2022-10-31T14:56:55;21.67;;;11.27;;
12707;SDS011;6418;50.824;4.718;2022-10-31T14:59:26;23.33;;;12.23;;
12707;SDS011;6418;50.824;4.718;2022-10-31T15:01:58;26.63;;;13.03;;
12707;SDS011;6418;50.824;4.718;2022-10-31T15:04:27;27.50;;;12.93;;
12707;SDS011;6418;50.824;4.718;2022-10-31T15:06:59;29.37;;;13.70;;
12707;SDS011;6418;50.824;4.718;2022-10-31T15:09:30;24.63;;;13.37;;
12707;SDS011;6418;50.824;4.718;2022-10-31T15:11:59;26.07;;;12.47;;
12707;SDS011;6418;50.824;4.718;2022-10-31T15:14:27;22.20;;;13.13;;
12707;SDS011;6418;50.824;4.718;2022-10-31T15:16:56;24.97;;;13.37;;